עמוד ראשי
METAR-TAF:

METAR-TAF

שדות תעופה :

Homer, אלסקה, ארצות הברית

קו רוחב: 59-39N, קו אורך: 151-29W, גובה: 26מטר

תצפית מזג אוויר נוכחית

הדו"ח נערך לפני 49דקות, בשעה 10:53 UTC
רוח רגועה
טמפרטורת 11 צלסיוס
לחות 76%
לחץ 1014 hPa
ראות: 16.1קילומטר
עננים בינוניים בגובה 5000רגל

METAR: PAHO 121053Z AUTO 00000KT 10SM BKN050 11/07 A2993 RMK AO2 SLP136 T01110072 TSNO

זמן: 03:42 (11:42 UTC)

תחזית

הדו"ח נערך לפני 6 שעות ו 20דקות, בשעה 05:22 UTC
תחזית בתוקף מ 12 ב 06 UTC עד 13 ב 06 UTC
רוח 4קשר עם כיוונים משתנים
ראות: 10קילומטר
עננים בינוניים בגובה 5000רגל
מ 12 ב 2000UTC
רוח 8קשר מכיוון מזרח עם משבים עד 16קשר
ראות: 9.7קילומטר
מעונן בגובה 3500רגל
גשם קל
מ 13 ב 0000UTC
רוח 15קשר מכיוון מזרח עם משבים עד 22קשר
ראות: 8.0קילומטר
מעונן בגובה 3000רגל
גשם קל
מ 13 ב 0500UTC
רוח 6קשר מכיוון מערב/צפון-מערב
ראות: 10קילומטר
מעונן בגובה 3500רגל
גשם קל,

TAF: PAHO 120522Z 1206/1306 VRB04KT P6SM BKN050 FM122000 10008G16KT 6SM -RA OVC035 FM130000 10015G22KT 5SM -RA OVC030 FM130500 30006KT P6SM -RA OVC035

תצפיות ותחזיות מזג אוויר לגבי יותר מ- 4,000 שדות תעופה ברחבי העולם. דוחות METAR ו- TAF.

התחנות הזמינות מסומנות בנקודות צהובות ואדומות על גבי המפה.

העבר את העכבר לנקודה הצבעונית על מנת לראות את שם התחנה.

לאחר מכן, לחץ כדי לראות את תוכן ואת תחזיות מזג האוויר.

כדי לשנות את המפה: לחץ על הכפתורים הירוקים עם הפלוס השחור כדי להתקרב; על הכפתור הירוק עם המקף כדי להתרחק; או בחיצים הירוקים למפות סמוכות.


METAR-TAF: